Time,TemperatureF,DewpointF,PressureIn,WindDirection,WindDirectionDegrees,WindSpeedMPH,WindSpeedGustMPH,Humidity,HourlyPrecipIn,Conditions,Clouds,dailyrainin,SoftwareType,DateUTC
2013-06-06 00:01:00,62.4,35.8,30.02,East,90,16.1,-999.0,37,-99.99,,,0.00,Acu-Link.com,2013-06-06 06:01:00,
2013-06-06 00:16:00,62.1,36.2,30.01,ESE,112,15.0,-999.0,38,-99.99,,,0.00,Acu-Link.com,2013-06-06 06:16:00,
2013-06-06 00:32:00,60.8,37.0,30.02,East,90,23.8,-999.0,41,-99.99,,,0.00,Acu-Link.com,2013-06-06 06:32:00,
2013-06-06 00:47:00,60.6,36.8,30.01,ESE,112,15.5,-999.0,41,-99.99,,,0.00,Acu-Link.com,2013-06-06 06:47:00,
2013-06-06 01:02:00,60.3,36.5,30.02,ESE,112,3.2,-999.0,41,-99.99,,,0.00,Acu-Link.com,2013-06-06 07:02:00,
2013-06-06 01:17:00,59.5,36.4,30.02,NNE,22,3.2,-999.0,42,-99.99,,,0.00,Acu-Link.com,2013-06-06 07:17:00,
2013-06-06 01:47:00,57.2,36.1,30.03,South,180,4.2,-999.0,45,-99.99,,,0.00,Acu-Link.com,2013-06-06 07:47:00,
2013-06-06 02:02:00,57.4,35.7,30.02,ESE,112,7.3,-999.0,44,-99.99,,,0.00,Acu-Link.com,2013-06-06 08:02:00,
2013-06-06 02:18:00,57.6,35.9,30.02,ESE,112,8.9,-999.0,44,-99.99,,,0.00,Acu-Link.com,2013-06-06 08:18:00,
2013-06-06 02:33:00,57.4,35.7,30.01,SE,135,9.4,-999.0,44,-99.99,,,0.00,Acu-Link.com,2013-06-06 08:33:00,
2013-06-06 02:48:00,56.1,35.1,30.03,WNW,292,3.7,-999.0,45,-99.99,,,0.00,Acu-Link.com,2013-06-06 08:48:00,
2013-06-06 03:03:00,53.2,34.5,30.03,ESE,112,0.0,-999.0,49,-99.99,,,0.00,Acu-Link.com,2013-06-06 09:03:00,
2013-06-06 03:18:00,51.1,33.6,30.03,SW,225,2.2,-999.0,51,-99.99,,,0.00,Acu-Link.com,2013-06-06 09:18:00,
2013-06-06 03:33:00,50.7,33.7,30.03,ESE,112,2.2,-999.0,52,-99.99,,,0.00,Acu-Link.com,2013-06-06 09:33:00,
2013-06-06 03:49:00,49.3,32.9,30.04,ESE,112,0.0,-999.0,53,-99.99,,,0.00,Acu-Link.com,2013-06-06 09:49:00,
2013-06-06 04:04:00,47.3,32.4,30.04,ESE,112,1.7,-999.0,56,-99.99,,,0.00,Acu-Link.com,2013-06-06 10:04:00,
2013-06-06 04:19:00,46.4,32.0,30.04,ESE,112,0.0,-999.0,57,-99.99,,,0.00,Acu-Link.com,2013-06-06 10:19:00,
2013-06-06 04:35:00,47.1,33.1,30.05,SE,135,3.7,-999.0,58,-99.99,,,0.00,Acu-Link.com,2013-06-06 10:35:00,
2013-06-06 04:50:00,47.7,32.8,30.05,SE,135,2.2,-999.0,56,-99.99,,,0.00,Acu-Link.com,2013-06-06 10:50:00,
2013-06-06 05:05:00,48.2,33.2,30.06,SE,135,3.7,-999.0,56,-99.99,,,0.00,Acu-Link.com,2013-06-06 11:05:00,
2013-06-06 05:20:00,47.3,32.4,30.06,SE,135,0.0,-999.0,56,-99.99,,,0.00,Acu-Link.com,2013-06-06 11:20:00,
2013-06-06 05:36:00,46.6,32.2,30.06,SE,135,4.7,-999.0,57,-99.99,,,0.00,Acu-Link.com,2013-06-06 11:36:00,
2013-06-06 06:06:00,45.9,32.0,30.07,ESE,112,2.2,-999.0,58,-99.99,,,0.00,Acu-Link.com,2013-06-06 12:06:00,
2013-06-06 06:21:00,45.0,31.1,30.08,ESE,112,0.0,-999.0,58,-99.99,,,0.00,Acu-Link.com,2013-06-06 12:21:00,
2013-06-06 06:37:00,49.8,34.7,30.08,ESE,112,2.2,-999.0,56,-99.99,,,0.00,Acu-Link.com,2013-06-06 12:37:00,
2013-06-06 06:52:00,52.7,36.1,30.08,ESE,112,0.0,-999.0,53,-99.99,,,0.00,Acu-Link.com,2013-06-06 12:52:00,
2013-06-06 07:07:00,54.9,36.6,30.09,NW,315,0.0,-999.0,50,-99.99,,,0.00,Acu-Link.com,2013-06-06 13:07:00,
2013-06-06 07:23:00,58.8,38.1,30.09,NW,315,0.0,-999.0,46,-99.99,,,0.00,Acu-Link.com,2013-06-06 13:23:00,
2013-06-06 07:38:00,57.6,37.5,30.08,NW,315,0.0,-999.0,47,-99.99,,,0.00,Acu-Link.com,2013-06-06 13:38:00,
2013-06-06 07:53:00,60.3,39.4,30.09,NW,315,0.0,-999.0,46,-99.99,,,0.00,Acu-Link.com,2013-06-06 13:53:00,
2013-06-06 08:09:00,66.0,41.0,30.09,NW,315,1.1,-999.0,40,-99.99,,,0.00,Acu-Link.com,2013-06-06 14:09:00,
2013-06-06 08:24:00,70.3,40.6,30.09,NW,315,0.0,-999.0,34,-99.99,,,0.00,Acu-Link.com,2013-06-06 14:24:00,
2013-06-06 08:39:00,70.5,41.5,30.09,NW,315,0.0,-999.0,35,-99.99,,,0.00,Acu-Link.com,2013-06-06 14:39:00,
2013-06-06 08:54:00,70.2,40.5,30.09,West,270,5.8,-999.0,34,-99.99,,,0.00,Acu-Link.com,2013-06-06 14:54:00,
2013-06-06 09:09:00,72.9,42.1,30.08,SW,225,0.0,-999.0,33,-99.99,,,0.00,Acu-Link.com,2013-06-06 15:09:00,
2013-06-06 09:24:00,72.0,41.3,30.08,NW,315,5.8,-999.0,33,-99.99,,,0.00,Acu-Link.com,2013-06-06 15:24:00,
2013-06-06 09:40:00,68.5,39.0,30.08,West,270,4.2,-999.0,34,-99.99,,,0.00,Acu-Link.com,2013-06-06 15:40:00,
2013-06-06 09:55:00,68.4,38.9,30.08,West,270,2.7,-999.0,34,-99.99,,,0.00,Acu-Link.com,2013-06-06 15:55:00,
2013-06-06 10:10:00,70.5,39.2,30.08,WSW,247,4.2,-999.0,32,-99.99,,,0.00,Acu-Link.com,2013-06-06 16:10:00,
2013-06-06 10:25:00,72.3,39.1,30.08,WNW,292,3.2,-999.0,30,-99.99,,,0.00,Acu-Link.com,2013-06-06 16:25:00,
2013-06-06 10:41:00,72.5,39.3,30.07,West,270,5.8,-999.0,30,-99.99,,,0.00,Acu-Link.com,2013-06-06 16:41:00,
2013-06-06 10:56:00,73.0,38.0,30.07,West,270,5.3,-999.0,28,-99.99,,,0.00,Acu-Link.com,2013-06-06 16:56:00,
2013-06-06 11:11:00,73.6,38.5,30.06,SSE,157,3.2,-999.0,28,-99.99,,,0.00,Acu-Link.com,2013-06-06 17:11:00,
2013-06-06 11:28:00,77.0,38.5,30.05,WSW,247,4.7,-999.0,25,-99.99,,,0.00,Acu-Link.com,2013-06-06 17:28:00,
2013-06-06 11:43:00,75.7,36.3,30.05,South,180,0.0,-999.0,24,-99.99,,,0.00,Acu-Link.com,2013-06-06 17:43:00,
2013-06-06 11:58:00,77.2,37.6,30.04,West,270,5.3,-999.0,24,-99.99,,,0.00,Acu-Link.com,2013-06-06 17:58:00,
2013-06-06 12:16:00,78.8,36.7,30.03,West,270,13.5,-999.0,22,-99.99,,,0.00,Acu-Link.com,2013-06-06 18:16:00,
2013-06-06 12:31:00,80.4,38.1,30.03,SSE,157,8.9,-999.0,22,-99.99,,,0.00,Acu-Link.com,2013-06-06 18:31:00,
2013-06-06 12:50:00,82.0,37.0,30.02,South,180,1.7,-999.0,20,-99.99,,,0.00,Acu-Link.com,2013-06-06 18:50:00,
2013-06-06 13:06:00,80.8,33.3,30.01,NW,315,8.9,-999.0,18,-99.99,,,0.00,Acu-Link.com,2013-06-06 19:06:00,
2013-06-06 13:21:00,83.8,34.3,30.02,NW,315,8.3,-999.0,17,-99.99,,,0.00,Acu-Link.com,2013-06-06 19:21:00,
2013-06-06 13:52:00,82.2,31.5,30.00,ESE,112,2.2,-999.0,16,-99.99,,,0.00,Acu-Link.com,2013-06-06 19:52:00,
2013-06-06 14:08:00,85.1,30.5,30.00,NW,315,7.3,-999.0,14,-99.99,,,0.00,Acu-Link.com,2013-06-06 20:08:00,
2013-06-06 18:53:00,58.1,44.3,29.97,ESE,112,11.9,-999.0,60,-99.99,,,0.04,Acu-Link.com,2013-06-07 00:53:00,
2013-06-06 19:08:00,59.7,43.0,29.97,East,90,21.2,-999.0,54,-99.99,,,0.04,Acu-Link.com,2013-06-07 01:08:00,
2013-06-06 19:23:00,60.1,42.4,29.98,ESE,112,15.0,-999.0,52,-99.99,,,0.04,Acu-Link.com,2013-06-07 01:23:00,
2013-06-06 19:43:00,60.1,42.9,29.99,East,90,19.1,-999.0,53,-99.99,,,0.04,Acu-Link.com,2013-06-07 01:43:00,
2013-06-06 20:02:00,59.4,41.8,29.99,East,90,10.4,-999.0,52,-99.99,,,0.04,Acu-Link.com,2013-06-07 02:02:00,
2013-06-06 20:18:00,59.0,41.4,30.00,ESE,112,11.4,-999.0,52,-99.99,,,0.04,Acu-Link.com,2013-06-07 02:18:00,
2013-06-06 20:33:00,58.1,41.5,30.00,East,90,18.6,-999.0,54,-99.99,,,0.04,Acu-Link.com,2013-06-07 02:33:00,
2013-06-06 20:55:00,58.3,41.2,30.03,ESE,112,20.7,-999.0,53,-99.99,,,0.04,Acu-Link.com,2013-06-07 02:55:00,
2013-06-06 21:10:00,58.3,41.2,30.02,East,90,19.1,-999.0,53,-99.99,,,0.04,Acu-Link.com,2013-06-07 03:10:00,
2013-06-06 21:29:00,58.1,41.1,30.03,East,90,18.6,-999.0,53,-99.99,,,0.04,Acu-Link.com,2013-06-07 03:29:00,
2013-06-06 21:44:00,57.9,40.9,30.04,ESE,112,22.2,-999.0,53,-99.99,,,0.04,Acu-Link.com,2013-06-07 03:44:00,
2013-06-06 22:00:00,57.9,40.9,30.07,East,90,16.6,-999.0,53,-99.99,,,0.04,Acu-Link.com,2013-06-07 04:00:00,
2013-06-06 22:20:00,57.9,40.9,30.05,East,90,14.0,-999.0,53,-99.99,,,0.04,Acu-Link.com,2013-06-07 04:20:00,
2013-06-06 22:35:00,57.9,40.9,30.08,ESE,112,18.1,-999.0,53,-99.99,,,0.04,Acu-Link.com,2013-06-07 04:35:00,
2013-06-06 22:51:00,57.2,40.7,30.07,ESE,112,12.5,-999.0,54,-99.99,,,0.04,Acu-Link.com,2013-06-07 04:51:00,
2013-06-06 23:06:00,56.8,40.8,30.08,SE,135,22.2,-999.0,55,-99.99,,,0.04,Acu-Link.com,2013-06-07 05:06:00,
2013-06-06 23:37:00,56.3,40.8,30.06,ESE,112,14.0,-999.0,56,-99.99,,,0.04,Acu-Link.com,2013-06-07 05:37:00,
2013-06-06 23:52:00,56.7,41.2,30.07,ESE,112,24.3,-999.0,56,-99.99,,,0.04,Acu-Link.com,2013-06-07 05:52:00,